Luderitz, Namibia

7:12 PM WAST on October 25, 2014 (GMT +0200)
Luderitz | Change Station
CLOSE
Current Station
Airport
Location: LUDERITZ/DIAZ P,
Elevation: 427 ft
Nearby Weather Stations

Elev 427 ft 26.69 °S, 15.24 °E | Updated 12 minutes ago

Clear
Clear
64 °F
Feels Like 64 °F
N
18
Wind Variable Wind from SSW
Gusts mph

Today
High -- | Low -- °F
--% Chance of Precip.
Yesterday
High -- | Low -- °F
Precip. -- in
6:15 AM 7:12 PM
Waxing Crescent, 3% visible
Pressure 29.80 in
Visibility -9999.0 miles
Clouds
Dew Point 55 °F
Humidity 73%
Rainfall 0.00 in
Snow Depth Not available.
UV Not available.
Pollen Not available.
Air Quality Not available.
Flu Activity Not available.
METAR FYLZ 251700Z AUTO 20016KT //// // ////// 18/13 Q1009

More Conditions Fewer Conditions

Pressure 29.80 in
Visibility -9999.0 miles
Clouds
Dew Point 55 °F
Humidity 73%
Rainfall 0.00 in
Snow Depth Not available.
UV Not available.
Pollen Not available.
Air Quality Not available.
Flu Activity Not available.
METAR FYLZ 251700Z AUTO 20016KT //// // ////// 18/13 Q1009

More Conditions Fewer Conditions

10-Day Weather Forecast

Almanac

Astronomy

Oct. 25, 2014 Rise Set
Actual Time 6:15 AM WAST 7:12 PM WAST
Civil Twilight 5:51 AM WAST 7:36 PM WAST
Nautical Twilight 5:23 AM WAST 8:04 PM WAST
Astronomical Twilight 4:54 AM WAST 8:33 PM WAST
Moon 7:17 AM WAST 8:47 PM WAST
Length of Visible Light 13h 45m
Length of Day
12h 57m
Tomorrow will be 1m 28s longer.
Waxing Crescent, 3% of the Moon is Illuminated
Today
Waxing Crescent
Oct 30
First Quarter
Nov 6
Full
Nov 14
Last Quarter
Nov 22
New

Today's Extremes

Country Highs Country Lows

Community

WunderPhotos

Upload Photos

1,764,916 photos uploaded!

Nearby

Snow Depth

Not available.

Earthquake Activity

City Distance Mag. Time & Date
No recent earthquake activity has been reported nearby.
Minimum magnitude displayed is 2.5.

Coastal Water Temperatures

Place Temperature
No Stations Reporting

Nearby Weather Stations